createdAt,value
2023-05-14T00:00:59.369Z,15.96
2023-05-14T00:03:27.323Z,15.97
2023-05-14T00:05:55.283Z,15.97
2023-05-14T00:08:24.589Z,15.96
2023-05-14T00:10:52.455Z,15.96
2023-05-14T00:13:20.290Z,15.97
2023-05-14T00:15:48.186Z,15.99
2023-05-14T00:18:16.121Z,16.05
2023-05-14T00:20:44.040Z,16.12
2023-05-14T00:23:12.114Z,16.18
2023-05-14T00:25:41.304Z,16.28
2023-05-14T00:28:09.137Z,16.30
2023-05-14T00:30:36.920Z,16.32
2023-05-14T00:33:05.017Z,16.37
2023-05-14T00:35:35.295Z,16.40
2023-05-14T00:38:03.364Z,16.42
2023-05-14T00:40:31.434Z,16.46
2023-05-14T00:43:10.904Z,16.48
2023-05-14T00:45:39.186Z,16.44
2023-05-14T00:48:07.172Z,16.45
2023-05-14T00:50:35.658Z,16.43
2023-05-14T00:53:04.264Z,16.40
2023-05-14T00:55:32.885Z,16.37
2023-05-14T00:58:02.729Z,16.32
2023-05-14T01:00:30.548Z,16.31
2023-05-14T01:03:01.527Z,16.29
2023-05-14T01:05:34.961Z,16.27
2023-05-14T01:08:09.159Z,16.25
2023-05-14T01:10:43.459Z,16.21
2023-05-14T01:13:21.032Z,16.19
2023-05-14T01:15:50.332Z,16.15
2023-05-14T01:18:20.087Z,16.12
2023-05-14T01:20:51.543Z,16.09
2023-05-14T01:23:21.157Z,16.09
2023-05-14T01:25:49.052Z,16.09
2023-05-14T01:28:19.126Z,16.08
2023-05-14T01:30:52.749Z,16.05
2023-05-14T01:33:22.928Z,16.03
2023-05-14T01:35:53.677Z,15.99
2023-05-14T01:38:24.190Z,15.97
2023-05-14T01:40:53.534Z,15.94
2023-05-14T01:43:22.196Z,15.92
2023-05-14T01:45:50.068Z,15.90
2023-05-14T01:48:17.879Z,15.90
2023-05-14T01:50:45.678Z,15.88
2023-05-14T01:53:13.601Z,15.85
2023-05-14T01:55:42.848Z,15.80
2023-05-14T01:58:10.669Z,15.71
2023-05-14T02:00:38.483Z,15.60
2023-05-14T02:03:06.437Z,15.53
2023-05-14T02:05:34.421Z,15.49
2023-05-14T02:08:02.267Z,15.45
2023-05-14T02:10:30.072Z,15.48
2023-05-14T02:12:59.207Z,15.45
2023-05-14T02:15:27.026Z,15.45
2023-05-14T02:17:54.838Z,15.47
2023-05-14T02:20:22.908Z,15.47
2023-05-14T02:22:50.831Z,15.48
2023-05-14T02:25:19.115Z,15.49
2023-05-14T02:27:47.355Z,15.49
2023-05-14T02:30:16.837Z,15.50
2023-05-14T02:32:44.748Z,15.46
2023-05-14T02:35:12.586Z,15.45
2023-05-14T02:37:40.367Z,15.44
2023-05-14T02:40:09.371Z,15.41
2023-05-14T02:42:37.109Z,15.39
2023-05-14T02:45:05.568Z,15.39
2023-05-14T02:47:37.568Z,15.38
2023-05-14T02:50:06.983Z,15.35
2023-05-14T02:52:34.835Z,15.30
2023-05-14T02:55:02.950Z,15.29
2023-05-14T02:57:30.785Z,15.28
2023-05-14T02:59:58.585Z,15.20
2023-05-14T03:02:26.747Z,15.15
2023-05-14T03:04:56.254Z,15.09
2023-05-14T03:07:24.166Z,15.00
2023-05-14T03:09:51.971Z,14.91
2023-05-14T03:12:21.139Z,14.81
2023-05-14T03:14:48.929Z,14.74
2023-05-14T03:17:16.720Z,14.64
2023-05-14T03:19:44.514Z,14.59
2023-05-14T03:22:13.770Z,14.55
2023-05-14T03:24:41.628Z,14.58
2023-05-14T03:27:09.522Z,14.62
2023-05-14T03:29:37.381Z,14.64
2023-05-14T03:32:06.165Z,14.65
2023-05-14T03:34:42.986Z,14.72
2023-05-14T03:37:11.116Z,14.81
2023-05-14T03:39:40.335Z,14.88
2023-05-14T03:42:08.283Z,14.92
2023-05-14T03:44:36.172Z,14.88
2023-05-14T03:47:04.034Z,14.85
2023-05-14T03:49:31.865Z,14.86
2023-05-14T03:51:59.649Z,14.92
2023-05-14T03:54:27.440Z,14.98
2023-05-14T03:56:56.613Z,15.05
2023-05-14T03:59:24.402Z,15.06
2023-05-14T04:01:52.239Z,15.11
2023-05-14T04:04:20.222Z,15.10
2023-05-14T04:06:48.139Z,15.07
2023-05-14T04:09:16.213Z,15.02
2023-05-14T04:11:44.025Z,15.01
2023-05-14T04:14:13.146Z,15.01
2023-05-14T04:16:40.955Z,15.02
2023-05-14T04:19:08.930Z,15.04
2023-05-14T04:21:36.847Z,15.07
2023-05-14T04:24:05.151Z,15.01
2023-05-14T04:26:33.042Z,15.01
2023-05-14T04:29:03.092Z,15.00
2023-05-14T04:31:32.721Z,15.08
2023-05-14T04:34:00.537Z,15.13
2023-05-14T04:36:28.410Z,15.17
2023-05-14T04:38:56.647Z,15.21
2023-05-14T04:41:24.477Z,15.22
2023-05-14T04:43:52.289Z,15.23
2023-05-14T04:46:20.277Z,15.25
2023-05-14T04:48:50.408Z,15.29
2023-05-14T04:51:18.599Z,15.35
2023-05-14T04:53:46.574Z,15.43
2023-05-14T04:56:14.433Z,15.57
2023-05-14T04:58:42.260Z,15.80
2023-05-14T05:01:10.164Z,16.14
2023-05-14T05:03:38.111Z,16.63
2023-05-14T05:06:07.866Z,17.12
2023-05-14T05:08:35.698Z,17.70
2023-05-14T05:11:03.499Z,18.28
2023-05-14T05:13:32.234Z,18.76
2023-05-14T05:16:00.166Z,19.11
2023-05-14T05:18:28.093Z,19.48
2023-05-14T05:20:56.248Z,20.03
2023-05-14T05:23:25.469Z,20.83
2023-05-14T05:25:53.225Z,21.63
2023-05-14T05:28:21.030Z,22.40
2023-05-14T05:30:48.999Z,23.10
2023-05-14T05:33:17.150Z,23.65
2023-05-14T05:35:45.593Z,24.24
2023-05-14T05:38:15.085Z,24.62
2023-05-14T05:40:44.249Z,25.00
2023-05-14T05:43:13.915Z,25.68
2023-05-14T05:45:41.818Z,26.38
2023-05-14T05:48:09.586Z,26.97
2023-05-14T05:50:37.394Z,27.17
2023-05-14T05:53:05.295Z,27.17
2023-05-14T05:55:33.132Z,27.22
2023-05-14T05:58:02.363Z,27.33
2023-05-14T06:00:31.250Z,27.43
2023-05-14T06:02:59.151Z,27.81
2023-05-14T06:05:27.269Z,28.30
2023-05-14T06:07:59.873Z,28.73
2023-05-14T06:10:27.622Z,29.05
2023-05-14T06:12:55.386Z,29.18
2023-05-14T06:15:24.616Z,29.29
2023-05-14T06:17:52.557Z,29.50
2023-05-14T06:20:21.144Z,29.68
2023-05-14T06:22:49.144Z,29.91
2023-05-14T06:25:17.025Z,29.98
2023-05-14T06:27:44.869Z,29.85
2023-05-14T06:30:13.885Z,29.80
2023-05-14T06:32:43.165Z,29.98
2023-05-14T06:35:11.341Z,30.35
2023-05-14T06:37:39.118Z,30.80
2023-05-14T06:40:08.534Z,31.22
2023-05-14T06:42:36.382Z,31.54
2023-05-14T06:45:04.508Z,31.70
2023-05-14T06:47:32.607Z,31.67
2023-05-14T06:50:02.056Z,31.53
2023-05-14T06:52:29.929Z,31.55
2023-05-14T06:54:57.814Z,31.56
2023-05-14T06:57:25.764Z,31.66
2023-05-14T06:59:53.652Z,32.11
2023-05-14T07:02:21.525Z,32.31
2023-05-14T07:04:49.494Z,32.60
2023-05-14T07:07:21.162Z,32.88
2023-05-14T07:09:48.992Z,33.06
2023-05-14T07:12:16.785Z,33.29
2023-05-14T07:14:44.562Z,33.83
2023-05-14T07:17:12.567Z,34.03
2023-05-14T07:19:40.942Z,34.30
2023-05-14T07:22:08.844Z,34.78
2023-05-14T07:24:38.087Z,35.21
2023-05-14T07:27:06.557Z,35.49
2023-05-14T07:29:35.244Z,35.13
2023-05-14T07:32:03.181Z,35.19
2023-05-14T07:34:31.052Z,34.93
2023-05-14T07:36:59.040Z,34.60
2023-05-14T07:39:26.836Z,34.45
2023-05-14T07:41:56.023Z,34.23
2023-05-14T07:44:23.833Z,33.82
2023-05-14T07:46:51.660Z,32.78
2023-05-14T07:49:19.567Z,32.08
2023-05-14T07:51:47.335Z,31.50
2023-05-14T07:54:15.214Z,30.67
2023-05-14T07:56:43.048Z,29.90
2023-05-14T07:59:12.271Z,29.37
2023-05-14T08:01:40.096Z,28.46
2023-05-14T08:04:08.157Z,27.72
2023-05-14T08:06:36.064Z,27.10
2023-05-14T08:09:05.482Z,26.58
2023-05-14T08:11:33.263Z,26.30
2023-05-14T08:14:01.102Z,26.18
2023-05-14T08:16:30.396Z,25.94
2023-05-14T08:18:58.315Z,25.51
2023-05-14T08:21:26.120Z,25.27
2023-05-14T08:23:54.003Z,25.23
2023-05-14T08:26:21.981Z,25.13
2023-05-14T08:28:50.944Z,24.93
2023-05-14T08:31:18.828Z,24.53
2023-05-14T08:33:48.099Z,24.36
2023-05-14T08:36:15.860Z,24.11
2023-05-14T08:38:44.240Z,24.07
2023-05-14T08:41:13.836Z,23.80
2023-05-14T08:43:46.565Z,23.74
2023-05-14T08:46:18.288Z,23.69
2023-05-14T08:48:54.036Z,23.78
2023-05-14T08:51:21.924Z,23.91
2023-05-14T08:53:49.803Z,23.93
2023-05-14T08:56:19.287Z,23.86
2023-05-14T08:58:47.084Z,23.83
2023-05-14T09:01:14.950Z,23.91
2023-05-14T09:03:43.627Z,23.94
2023-05-14T09:06:15.084Z,23.69
2023-05-14T09:08:43.326Z,23.58
2023-05-14T09:11:11.177Z,23.58
2023-05-14T09:13:39.711Z,23.74
2023-05-14T09:16:08.377Z,23.88
2023-05-14T09:18:37.546Z,23.84
2023-05-14T09:21:06.039Z,23.61
2023-05-14T09:23:35.380Z,23.46
2023-05-14T09:26:06.233Z,23.46
2023-05-14T09:28:34.112Z,23.57
2023-05-14T09:31:03.523Z,23.68
2023-05-14T09:33:31.548Z,23.67
2023-05-14T09:36:00.724Z,23.49
2023-05-14T09:38:31.842Z,23.48
2023-05-14T09:41:01.972Z,23.57
2023-05-14T09:43:29.807Z,23.69
2023-05-14T09:45:57.605Z,23.85
2023-05-14T09:48:26.438Z,24.00
2023-05-14T09:50:54.360Z,24.20
2023-05-14T09:53:22.206Z,24.41
2023-05-14T09:55:50.938Z,24.58
2023-05-14T09:58:20.191Z,24.64
2023-05-14T10:00:48.379Z,24.68
2023-05-14T10:03:19.629Z,24.88
2023-05-14T10:05:51.126Z,25.13
2023-05-14T10:08:26.733Z,25.47
2023-05-14T10:10:56.090Z,25.65
2023-05-14T10:13:28.105Z,25.71
2023-05-14T10:16:03.078Z,25.92
2023-05-14T10:18:34.967Z,26.01
2023-05-14T10:21:06.424Z,25.97
2023-05-14T10:23:34.786Z,26.26
2023-05-14T10:26:03.426Z,26.67
2023-05-14T10:28:33.274Z,27.15
2023-05-14T10:31:01.724Z,27.64
2023-05-14T10:33:29.808Z,28.14
2023-05-14T10:36:03.158Z,28.35
2023-05-14T10:38:33.497Z,27.52
2023-05-14T10:41:02.970Z,27.57
2023-05-14T10:43:37.058Z,27.84
2023-05-14T10:46:05.793Z,27.90
2023-05-14T10:48:34.867Z,28.24
2023-05-14T10:51:03.084Z,28.29
2023-05-14T10:53:35.730Z,28.11
2023-05-14T10:56:08.618Z,28.38
2023-05-14T10:58:39.173Z,28.55
2023-05-14T11:01:08.542Z,28.75
2023-05-14T11:03:42.939Z,28.95
2023-05-14T11:06:13.145Z,28.70
2023-05-14T11:08:41.687Z,28.87
2023-05-14T11:11:10.858Z,28.98
2023-05-14T11:13:40.220Z,28.41
2023-05-14T11:16:21.563Z,28.33
2023-05-14T11:18:54.743Z,28.36
2023-05-14T11:21:22.799Z,28.17
2023-05-14T11:23:51.290Z,27.58
2023-05-14T11:26:21.399Z,27.20
2023-05-14T11:28:51.064Z,26.96
2023-05-14T11:31:19.135Z,26.61
2023-05-14T11:33:47.315Z,26.42
2023-05-14T11:36:15.176Z,26.56
2023-05-14T11:38:50.596Z,26.50
2023-05-14T11:41:21.032Z,26.04
2023-05-14T11:43:50.420Z,25.60
2023-05-14T11:46:19.360Z,25.50
2023-05-14T11:48:47.321Z,25.48
2023-05-14T11:51:18.219Z,25.46
2023-05-14T11:53:46.723Z,25.46
2023-05-14T11:56:14.618Z,25.43
2023-05-14T11:58:42.444Z,25.26
2023-05-14T12:01:14.687Z,25.00
2023-05-14T12:03:42.873Z,24.94
2023-05-14T12:06:10.778Z,24.90
2023-05-14T12:08:38.848Z,24.91
2023-05-14T12:11:06.919Z,24.84
2023-05-14T12:13:34.833Z,24.85
2023-05-14T12:16:03.505Z,24.75
2023-05-14T12:18:33.735Z,24.67
2023-05-14T12:21:03.868Z,24.64
2023-05-14T12:23:33.172Z,24.55
2023-05-14T12:26:06.190Z,24.48
2023-05-14T12:28:37.703Z,24.38
2023-05-14T12:31:06.716Z,24.41
2023-05-14T12:33:36.174Z,24.33
2023-05-14T12:36:20.592Z,24.01
2023-05-14T12:38:50.252Z,23.60
2023-05-14T12:41:18.265Z,23.54
2023-05-14T12:43:48.615Z,23.56
2023-05-14T12:46:16.598Z,23.52
2023-05-14T12:48:46.469Z,23.57
2023-05-14T12:51:14.561Z,23.61
2023-05-14T12:53:42.437Z,23.63
2023-05-14T12:56:10.883Z,23.77
2023-05-14T12:58:38.636Z,23.82
2023-05-14T13:01:06.688Z,23.77
2023-05-14T13:03:34.695Z,23.82
2023-05-14T13:06:03.942Z,23.92
2023-05-14T13:08:31.813Z,24.15
2023-05-14T13:11:00.887Z,24.23
2023-05-14T13:13:28.918Z,24.29
2023-05-14T13:15:56.803Z,24.14
2023-05-14T13:18:26.615Z,24.00
2023-05-14T13:20:55.484Z,23.97
2023-05-14T13:23:25.062Z,24.06
2023-05-14T13:25:52.900Z,23.93
2023-05-14T13:28:20.715Z,24.05
2023-05-14T13:31:05.122Z,24.14
2023-05-14T13:33:33.715Z,24.28
2023-05-14T13:36:01.674Z,24.40
2023-05-14T13:38:30.919Z,24.43
2023-05-14T13:41:02.385Z,24.44
2023-05-14T13:43:31.227Z,24.47
2023-05-14T13:45:59.413Z,24.33
2023-05-14T13:48:27.771Z,24.22
2023-05-14T13:50:55.888Z,24.04
2023-05-14T13:53:24.642Z,23.96
2023-05-14T13:55:56.634Z,23.89
2023-05-14T13:58:25.272Z,23.77
2023-05-14T14:00:53.529Z,23.70
2023-05-14T14:03:21.637Z,23.51
2023-05-14T14:05:50.194Z,23.33
2023-05-14T14:08:23.943Z,23.28
2023-05-14T14:10:55.325Z,23.14
2023-05-14T14:13:23.746Z,22.95
2023-05-14T14:15:51.727Z,22.81
2023-05-14T14:18:19.779Z,22.71
2023-05-14T14:20:47.605Z,22.64
2023-05-14T14:23:15.507Z,22.63
2023-05-14T14:25:43.646Z,22.63
2023-05-14T14:28:12.806Z,22.65
2023-05-14T14:30:41.109Z,22.64
2023-05-14T14:33:09.003Z,22.62
2023-05-14T14:35:37.448Z,22.65
2023-05-14T14:38:05.357Z,22.63
2023-05-14T14:40:34.187Z,22.62
2023-05-14T14:43:02.072Z,22.61
2023-05-14T14:45:31.251Z,22.62
2023-05-14T14:48:31.481Z,22.63
2023-05-14T14:50:59.452Z,22.64
2023-05-14T14:53:27.254Z,22.64
2023-05-14T14:55:55.126Z,22.65
2023-05-14T14:58:23.157Z,22.67
2023-05-14T15:00:54.015Z,22.62
2023-05-14T15:03:22.386Z,22.60
2023-05-14T15:05:51.245Z,22.56
2023-05-14T15:08:19.046Z,22.58
2023-05-14T15:10:46.897Z,22.63
2023-05-14T15:13:14.691Z,22.64
2023-05-14T15:15:42.584Z,22.64
2023-05-14T15:18:11.988Z,22.65
2023-05-14T15:20:40.101Z,22.64
2023-05-14T15:23:08.208Z,22.63
2023-05-14T15:25:37.770Z,22.69
2023-05-14T15:28:07.034Z,22.75
2023-05-14T15:30:34.903Z,22.77
2023-05-14T15:33:02.878Z,22.76
2023-05-14T15:35:32.146Z,22.73
2023-05-14T15:37:59.942Z,22.65
2023-05-14T15:40:28.571Z,22.59
2023-05-14T15:42:56.373Z,22.53
2023-05-14T15:45:24.421Z,22.47
2023-05-14T15:47:52.232Z,22.39
2023-05-14T15:50:21.442Z,22.37
2023-05-14T15:52:50.963Z,22.33
2023-05-14T15:55:19.066Z,22.30
2023-05-14T15:57:46.890Z,22.31
2023-05-14T16:00:15.457Z,22.34
2023-05-14T16:02:43.387Z,22.36
2023-05-14T16:05:11.288Z,22.35
2023-05-14T16:07:39.526Z,22.30
2023-05-14T16:10:09.802Z,22.19
2023-05-14T16:12:37.677Z,22.13
2023-05-14T16:15:06.166Z,22.12
2023-05-14T16:17:34.076Z,22.10
2023-05-14T16:20:02.047Z,22.08
2023-05-14T16:22:32.020Z,22.10
2023-05-14T16:25:02.589Z,22.12
2023-05-14T16:27:32.499Z,22.13
2023-05-14T16:30:00.375Z,22.14
2023-05-14T16:32:28.199Z,22.18
2023-05-14T16:34:56.634Z,22.25
2023-05-14T16:37:24.609Z,22.22
2023-05-14T16:39:52.454Z,22.19
2023-05-14T16:42:20.354Z,22.15
2023-05-14T16:44:49.577Z,22.09
2023-05-14T16:47:17.368Z,22.04
2023-05-14T16:49:45.297Z,22.00
2023-05-14T16:52:13.154Z,21.98
2023-05-14T16:54:40.980Z,22.00
2023-05-14T16:57:08.917Z,22.02
2023-05-14T16:59:36.777Z,22.04
2023-05-14T17:02:06.243Z,22.05
2023-05-14T17:07:06.638Z,21.91
2023-05-14T17:09:34.500Z,21.84
2023-05-14T17:12:02.415Z,21.80
2023-05-14T17:14:30.317Z,21.76
2023-05-14T17:16:58.113Z,21.75
2023-05-14T17:19:27.318Z,21.74
2023-05-14T17:21:55.073Z,21.74
2023-05-14T17:24:22.884Z,21.73
2023-05-14T17:26:50.757Z,21.74
2023-05-14T17:29:18.626Z,21.73
2023-05-14T17:31:46.770Z,21.71
2023-05-14T17:34:14.708Z,21.71
2023-05-14T17:36:43.906Z,21.73
2023-05-14T17:39:11.908Z,21.73
2023-05-14T17:41:42.092Z,21.72
2023-05-14T17:44:12.087Z,21.68
2023-05-14T17:46:41.664Z,21.65
2023-05-14T17:49:09.724Z,21.61
2023-05-14T17:54:06.753Z,21.56
2023-05-14T17:56:35.033Z,21.53
2023-05-14T17:59:02.822Z,21.50
2023-05-14T18:01:30.812Z,21.47
2023-05-14T18:03:58.748Z,21.46
2023-05-14T18:06:26.761Z,21.43
2023-05-14T18:08:54.594Z,21.34
2023-05-14T18:11:23.823Z,21.34
2023-05-14T18:13:51.563Z,21.30
2023-05-14T18:16:19.398Z,21.29
2023-05-14T18:18:47.724Z,21.25
2023-05-14T18:21:16.048Z,21.22
2023-05-14T18:23:43.887Z,21.23
2023-05-14T18:26:11.780Z,21.17
2023-05-14T18:28:41.043Z,21.13
2023-05-14T18:31:08.941Z,21.11
2023-05-14T18:33:37.007Z,21.05
2023-05-14T18:36:05.181Z,21.04
2023-05-14T18:38:33.024Z,21.03
2023-05-14T18:41:00.801Z,21.00
2023-05-14T18:43:28.603Z,20.99
2023-05-14T18:45:57.868Z,20.96
2023-05-14T18:48:26.472Z,20.92
2023-05-14T18:50:54.229Z,20.89
2023-05-14T18:53:22.042Z,20.87
2023-05-14T18:55:49.796Z,20.83
2023-05-14T18:58:17.719Z,20.81
2023-05-14T19:00:45.522Z,20.77
2023-05-14T19:03:15.198Z,20.72
2023-05-14T19:05:43.169Z,20.71
2023-05-14T19:08:10.996Z,20.70
2023-05-14T19:10:38.830Z,20.69
2023-05-14T19:13:06.724Z,20.68
2023-05-14T19:15:34.609Z,20.63
2023-05-14T19:18:02.791Z,20.57
2023-05-14T19:20:32.001Z,20.54
2023-05-14T19:22:59.948Z,20.51
2023-05-14T19:25:28.014Z,20.49
2023-05-14T19:28:01.559Z,20.48
2023-05-14T19:30:29.401Z,20.47
2023-05-14T19:32:57.315Z,20.49
2023-05-14T19:35:25.446Z,20.48
2023-05-14T19:37:54.812Z,20.44
2023-05-14T19:40:22.610Z,20.42
2023-05-14T19:42:50.420Z,20.36
2023-05-14T19:45:18.223Z,20.31
2023-05-14T19:47:46.035Z,20.23
2023-05-14T19:50:13.937Z,20.17
2023-05-14T19:52:41.681Z,20.13
2023-05-14T19:55:11.029Z,20.08
2023-05-14T19:57:39.181Z,20.06
2023-05-14T20:00:09.386Z,20.05
2023-05-14T20:02:37.187Z,20.02
2023-05-14T20:05:06.811Z,19.97
2023-05-14T20:07:34.602Z,19.94
2023-05-14T20:10:02.711Z,19.89
2023-05-14T20:12:31.959Z,19.85
2023-05-14T20:14:59.834Z,19.81
2023-05-14T20:17:27.852Z,19.76
2023-05-14T20:19:56.531Z,19.72
2023-05-14T20:22:24.284Z,19.71
2023-05-14T20:24:52.723Z,19.66
2023-05-14T20:27:20.768Z,19.64
2023-05-14T20:29:51.370Z,19.59
2023-05-14T20:32:24.774Z,19.56
2023-05-14T20:34:52.848Z,19.53
2023-05-14T20:37:21.692Z,19.51
2023-05-14T20:39:49.500Z,19.48
2023-05-14T20:42:17.383Z,19.46
2023-05-14T20:44:45.250Z,19.45
2023-05-14T20:47:17.769Z,19.43
2023-05-14T20:49:45.646Z,19.41
2023-05-14T20:52:13.584Z,19.38
2023-05-14T20:54:41.400Z,19.36
2023-05-14T20:57:09.533Z,19.30
2023-05-14T20:59:37.357Z,19.26
2023-05-14T21:02:06.126Z,19.24
2023-05-14T21:04:35.874Z,19.22
2023-05-14T21:07:03.919Z,19.18
2023-05-14T21:09:31.750Z,19.14
2023-05-14T21:11:59.582Z,19.13
2023-05-14T21:14:27.342Z,19.10
2023-05-14T21:16:55.273Z,19.07
2023-05-14T21:19:23.636Z,19.06
2023-05-14T21:21:52.911Z,19.04
2023-05-14T21:24:20.705Z,19.02
2023-05-14T21:26:48.620Z,19.01
2023-05-14T21:29:16.580Z,18.98
2023-05-14T21:31:44.470Z,18.97
2023-05-14T21:34:12.296Z,18.98
2023-05-14T21:36:40.086Z,18.98
2023-05-14T21:39:09.429Z,18.96
2023-05-14T21:41:37.184Z,18.94
2023-05-14T21:44:04.996Z,18.94
2023-05-14T21:46:32.853Z,18.93
2023-05-14T21:49:00.665Z,18.91
2023-05-14T21:51:28.542Z,18.88
2023-05-14T21:53:56.347Z,18.83
2023-05-14T21:56:26.417Z,18.79
2023-05-14T21:58:56.028Z,18.75
2023-05-14T22:01:24.033Z,18.69
2023-05-14T22:03:51.953Z,18.66
2023-05-14T22:06:19.822Z,18.61
2023-05-14T22:08:47.635Z,18.59
2023-05-14T22:11:15.452Z,18.58
2023-05-14T22:13:44.677Z,18.56
2023-05-14T22:16:14.233Z,18.54
2023-05-14T22:18:42.714Z,18.54
2023-05-14T22:21:10.611Z,18.56
2023-05-14T22:23:38.435Z,18.53
2023-05-14T22:26:06.284Z,18.51
2023-05-14T22:28:34.047Z,18.51
2023-05-14T22:31:04.282Z,18.51
2023-05-14T22:33:33.213Z,18.48
2023-05-14T22:36:01.037Z,18.47
2023-05-14T22:38:28.895Z,18.45
2023-05-14T22:40:56.682Z,18.43
2023-05-14T22:43:24.588Z,18.39
2023-05-14T22:45:52.677Z,18.34
2023-05-14T22:48:21.846Z,18.33
2023-05-14T22:50:49.677Z,18.31
2023-05-14T22:53:17.503Z,18.24
2023-05-14T22:55:45.334Z,18.22
2023-05-14T22:58:13.205Z,18.21
2023-05-14T23:00:41.084Z,18.19
2023-05-14T23:03:08.969Z,18.18
2023-05-14T23:05:38.182Z,18.15
2023-05-14T23:08:06.800Z,18.08
2023-05-14T23:10:35.315Z,18.05
2023-05-14T23:13:03.163Z,18.03
2023-05-14T23:15:30.934Z,18.02
2023-05-14T23:17:58.852Z,18.00
2023-05-14T23:20:26.768Z,17.98
2023-05-14T23:22:55.871Z,17.95
2023-05-14T23:25:23.812Z,17.89
2023-05-14T23:27:51.767Z,17.86
2023-05-14T23:30:19.758Z,17.86
2023-05-14T23:32:47.544Z,17.85
2023-05-14T23:35:15.508Z,17.81
2023-05-14T23:37:47.330Z,17.74
2023-05-14T23:40:16.798Z,17.69
2023-05-14T23:42:44.973Z,17.68
2023-05-14T23:45:14.007Z,17.67
2023-05-14T23:47:42.179Z,17.65
2023-05-14T23:50:10.248Z,17.62
2023-05-14T23:52:38.059Z,17.59
2023-05-14T23:55:06.588Z,17.57
2023-05-14T23:57:36.063Z,17.55
